Briefing drone pour Sury-le-comtal

Rechercher une autre localisation

Conditions de vol :


Nous sommes le : Vendredi 02 décembre 2022
Il est 13:22 UTC (14:22 LT)

Lever de soleil : 06:38 UTC (07:38 LT)
Coucher de soleil : 16:27 UTC (17:27 LT)

Météo

L'essentiel des conditions de vol

VIGILANCE MÉTÉO FRANCE - Loire (42)
Vigilance Jaune : Neige-verglas
CARTES DES FRONTS
METAR de LFMH
LFMH 021300Z AUTO VRB02KT 9999 OVC027 04/M01 Q1015

Date d'émission: 02/12/2022
Heure d'émission: 13:00 UTC
Vent: Variable 2 KT (4 km/h)
Visibilité horizontale: > 10 km
Plafond :
- Couvert à 2700ft (823m)
Température: 4 °C
Point de rosée: -1 °C
Humidité: 70%
Pression (QNH): 1015 hPa
TAF de LFMH
LFMH 161901Z 1619/1712 CNL

Conditions prévues :

Heure d'émission : Bulletin éffectué le 16 à 19:00 UTC
Prévision : Valide du 16 a 19:00 UTC au 17 a 12:00 UTC
Nuages : à 0ft (0 m)
WEBCAM POUR SURY-LE-COMTAL

Réglementation

Voler en sécurité

CARTES AERONAUTIQUE 1/500.000
CARTE AZBA (Reseau basse altitude)
CARTES VAC (LFMH)
SUP AIP




Chargement des AIP...
NOTAM (SURY-LE-COMTAL + Terrain à proximité / FIR )




Chargement des NOTAMS...
CONTACT PREFECTURE 42


Avertissement : Les données mises à disposition sont indicatives. Oxygène Drone ne pourra être tenu responsable de dégâts causés aux biens et aux personnes.